Marshall Hall, Maryland
Current Conditions -  °F | °C
As of 2:58 AM on Friday 19 Dec 2014 (Local Time) from KDAA Reporting Station
Overcast Overcast  
Wind Chill: 29°   Ceiling: 7000
Heat Index: 35°   Visibility: 10mi
Dew Point: 22°   Wind: 7mph
Humidity: 60%   Direction: 290°WNW
Pressure: 30.14"   Gusts: NA
Location:  38.6499°N, 77.0865°W
Report Text: KDAA 190758Z AUTO 29006KT 10SM BKN070 OVC095 02/M05 A3014 RMK AO2 SLP210 T00171054
Loading
Personal Weather Stations






























Interactive Weather Map New forecast layout! Learn more

10-Day Weather Forecast

Advertisements
Track Severe Weather on mobile